sensor_id;sensor_type;location;lat;lon;timestamp;P1;durP1;ratioP1;P2;durP2;ratioP2
59434;SDS011;45241;49.768;8.636;2023-06-19T00:00:36;6.70;;;5.63;;
59434;SDS011;45241;49.768;8.636;2023-06-19T00:03:03;8.45;;;5.40;;
59434;SDS011;45241;49.768;8.636;2023-06-19T00:05:29;6.28;;;5.00;;
59434;SDS011;45241;49.768;8.636;2023-06-19T00:07:54;7.65;;;5.60;;
59434;SDS011;45241;49.768;8.636;2023-06-19T00:10:19;8.98;;;5.85;;
59434;SDS011;45241;49.768;8.636;2023-06-19T00:12:45;6.10;;;5.50;;
59434;SDS011;45241;49.768;8.636;2023-06-19T00:15:10;6.88;;;6.00;;
59434;SDS011;45241;49.768;8.636;2023-06-19T00:17:36;7.43;;;5.88;;
59434;SDS011;45241;49.768;8.636;2023-06-19T00:20:04;6.65;;;5.95;;
59434;SDS011;45241;49.768;8.636;2023-06-19T00:22:33;7.32;;;5.85;;
59434;SDS011;45241;49.768;8.636;2023-06-19T00:24:59;6.60;;;5.80;;
59434;SDS011;45241;49.768;8.636;2023-06-19T00:27:24;6.68;;;6.05;;
59434;SDS011;45241;49.768;8.636;2023-06-19T00:29:53;7.45;;;5.63;;
59434;SDS011;45241;49.768;8.636;2023-06-19T00:32:18;6.90;;;6.20;;
59434;SDS011;45241;49.768;8.636;2023-06-19T00:34:43;6.63;;;5.93;;
59434;SDS011;45241;49.768;8.636;2023-06-19T00:37:09;7.55;;;5.95;;
59434;SDS011;45241;49.768;8.636;2023-06-19T00:39:34;6.57;;;5.97;;
59434;SDS011;45241;49.768;8.636;2023-06-19T00:42:00;7.35;;;5.68;;
59434;SDS011;45241;49.768;8.636;2023-06-19T00:44:26;6.15;;;5.32;;
59434;SDS011;45241;49.768;8.636;2023-06-19T00:46:55;8.00;;;5.97;;
59434;SDS011;45241;49.768;8.636;2023-06-19T00:49:22;7.50;;;5.95;;
59434;SDS011;45241;49.768;8.636;2023-06-19T00:51:48;10.10;;;5.90;;
59434;SDS011;45241;49.768;8.636;2023-06-19T00:54:16;10.07;;;6.10;;
59434;SDS011;45241;49.768;8.636;2023-06-19T00:56:42;6.40;;;5.80;;
59434;SDS011;45241;49.768;8.636;2023-06-19T00:59:11;6.97;;;5.57;;
59434;SDS011;45241;49.768;8.636;2023-06-19T01:01:41;7.45;;;6.32;;
59434;SDS011;45241;49.768;8.636;2023-06-19T01:04:07;8.57;;;6.05;;
59434;SDS011;45241;49.768;8.636;2023-06-19T01:06:36;7.18;;;6.13;;
59434;SDS011;45241;49.768;8.636;2023-06-19T01:09:34;6.80;;;6.05;;
59434;SDS011;45241;49.768;8.636;2023-06-19T01:12:08;6.78;;;6.07;;
59434;SDS011;45241;49.768;8.636;2023-06-19T01:14:43;8.40;;;6.47;;
59434;SDS011;45241;49.768;8.636;2023-06-19T01:17:18;7.13;;;6.25;;
59434;SDS011;45241;49.768;8.636;2023-06-19T01:19:43;7.72;;;6.07;;
59434;SDS011;45241;49.768;8.636;2023-06-19T01:22:09;7.07;;;6.22;;
59434;SDS011;45241;49.768;8.636;2023-06-19T01:24:34;6.97;;;6.28;;
59434;SDS011;45241;49.768;8.636;2023-06-19T01:26:59;7.38;;;6.40;;
59434;SDS011;45241;49.768;8.636;2023-06-19T01:29:24;7.25;;;5.82;;
59434;SDS011;45241;49.768;8.636;2023-06-19T01:31:59;6.55;;;5.85;;
59434;SDS011;45241;49.768;8.636;2023-06-19T01:34:32;8.52;;;6.40;;
59434;SDS011;45241;49.768;8.636;2023-06-19T01:36:59;11.15;;;6.57;;
59434;SDS011;45241;49.768;8.636;2023-06-19T01:39:25;9.52;;;6.40;;
59434;SDS011;45241;49.768;8.636;2023-06-19T01:41:51;7.97;;;6.20;;
59434;SDS011;45241;49.768;8.636;2023-06-19T01:44:18;6.80;;;6.10;;
59434;SDS011;45241;49.768;8.636;2023-06-19T01:46:46;6.90;;;6.20;;
59434;SDS011;45241;49.768;8.636;2023-06-19T01:49:13;8.85;;;6.88;;
59434;SDS011;45241;49.768;8.636;2023-06-19T01:51:38;7.53;;;6.10;;
59434;SDS011;45241;49.768;8.636;2023-06-19T01:54:04;6.75;;;6.05;;
59434;SDS011;45241;49.768;8.636;2023-06-19T01:56:29;7.10;;;6.40;;
59434;SDS011;45241;49.768;8.636;2023-06-19T01:58:55;7.85;;;7.05;;
59434;SDS011;45241;49.768;8.636;2023-06-19T02:01:20;9.63;;;7.43;;
59434;SDS011;45241;49.768;8.636;2023-06-19T02:03:46;8.77;;;7.05;;
59434;SDS011;45241;49.768;8.636;2023-06-19T02:06:11;8.52;;;7.53;;
59434;SDS011;45241;49.768;8.636;2023-06-19T02:08:36;9.45;;;7.53;;
59434;SDS011;45241;49.768;8.636;2023-06-19T02:11:02;9.20;;;7.18;;
59434;SDS011;45241;49.768;8.636;2023-06-19T02:13:27;13.68;;;7.35;;
59434;SDS011;45241;49.768;8.636;2023-06-19T02:15:52;12.43;;;7.60;;
59434;SDS011;45241;49.768;8.636;2023-06-19T02:18:18;8.93;;;7.40;;
59434;SDS011;45241;49.768;8.636;2023-06-19T02:20:43;8.75;;;7.13;;
59434;SDS011;45241;49.768;8.636;2023-06-19T02:23:08;7.97;;;7.18;;
59434;SDS011;45241;49.768;8.636;2023-06-19T02:25:34;7.82;;;7.03;;
59434;SDS011;45241;49.768;8.636;2023-06-19T02:28:00;11.20;;;8.07;;
59434;SDS011;45241;49.768;8.636;2023-06-19T02:30:25;8.93;;;7.18;;
59434;SDS011;45241;49.768;8.636;2023-06-19T02:32:51;9.10;;;7.18;;
59434;SDS011;45241;49.768;8.636;2023-06-19T02:35:16;9.48;;;7.13;;
59434;SDS011;45241;49.768;8.636;2023-06-19T02:37:42;7.75;;;6.95;;
59434;SDS011;45241;49.768;8.636;2023-06-19T02:40:07;8.95;;;7.38;;
59434;SDS011;45241;49.768;8.636;2023-06-19T02:42:34;7.70;;;6.90;;
59434;SDS011;45241;49.768;8.636;2023-06-19T02:44:59;8.18;;;7.03;;
59434;SDS011;45241;49.768;8.636;2023-06-19T02:47:28;8.80;;;7.43;;
59434;SDS011;45241;49.768;8.636;2023-06-19T02:49:55;9.43;;;7.22;;
59434;SDS011;45241;49.768;8.636;2023-06-19T02:52:22;7.80;;;7.00;;
59434;SDS011;45241;49.768;8.636;2023-06-19T02:54:47;8.25;;;7.15;;
59434;SDS011;45241;49.768;8.636;2023-06-19T02:57:12;8.15;;;7.35;;
59434;SDS011;45241;49.768;8.636;2023-06-19T02:59:37;8.90;;;6.68;;
59434;SDS011;45241;49.768;8.636;2023-06-19T03:02:03;7.85;;;7.05;;
59434;SDS011;45241;49.768;8.636;2023-06-19T03:04:28;7.60;;;6.80;;
59434;SDS011;45241;49.768;8.636;2023-06-19T03:06:54;8.20;;;7.40;;
59434;SDS011;45241;49.768;8.636;2023-06-19T03:09:19;7.53;;;6.72;;
59434;SDS011;45241;49.768;8.636;2023-06-19T03:11:45;12.38;;;7.53;;
59434;SDS011;45241;49.768;8.636;2023-06-19T03:14:10;7.90;;;6.78;;
59434;SDS011;45241;49.768;8.636;2023-06-19T03:16:35;8.25;;;6.90;;
59434;SDS011;45241;49.768;8.636;2023-06-19T03:19:01;10.18;;;7.32;;
59434;SDS011;45241;49.768;8.636;2023-06-19T03:21:27;7.50;;;6.80;;
59434;SDS011;45241;49.768;8.636;2023-06-19T03:23:52;7.97;;;7.20;;
59434;SDS011;45241;49.768;8.636;2023-06-19T03:26:18;10.98;;;7.43;;
59434;SDS011;45241;49.768;8.636;2023-06-19T03:28:44;8.77;;;7.65;;
59434;SDS011;45241;49.768;8.636;2023-06-19T03:31:11;8.73;;;7.43;;
59434;SDS011;45241;49.768;8.636;2023-06-19T03:33:36;10.45;;;6.80;;
59434;SDS011;45241;49.768;8.636;2023-06-19T03:36:02;11.68;;;7.78;;
59434;SDS011;45241;49.768;8.636;2023-06-19T03:38:28;7.93;;;7.00;;
59434;SDS011;45241;49.768;8.636;2023-06-19T03:40:53;8.70;;;7.80;;
59434;SDS011;45241;49.768;8.636;2023-06-19T03:43:19;8.02;;;7.13;;
59434;SDS011;45241;49.768;8.636;2023-06-19T03:45:44;7.90;;;6.80;;
59434;SDS011;45241;49.768;8.636;2023-06-19T03:48:09;7.63;;;6.82;;
59434;SDS011;45241;49.768;8.636;2023-06-19T03:50:35;6.72;;;6.13;;
59434;SDS011;45241;49.768;8.636;2023-06-19T03:53:00;7.03;;;6.30;;
59434;SDS011;45241;49.768;8.636;2023-06-19T03:55:25;6.45;;;5.85;;
59434;SDS011;45241;49.768;8.636;2023-06-19T03:57:51;7.28;;;6.15;;
59434;SDS011;45241;49.768;8.636;2023-06-19T04:00:17;9.18;;;5.72;;
59434;SDS011;45241;49.768;8.636;2023-06-19T04:02:43;6.00;;;5.40;;
59434;SDS011;45241;49.768;8.636;2023-06-19T04:05:11;7.40;;;5.53;;
59434;SDS011;45241;49.768;8.636;2023-06-19T04:07:36;7.53;;;5.50;;
59434;SDS011;45241;49.768;8.636;2023-06-19T04:10:02;7.57;;;5.38;;
59434;SDS011;45241;49.768;8.636;2023-06-19T04:12:27;6.25;;;5.25;;
59434;SDS011;45241;49.768;8.636;2023-06-19T04:14:52;6.68;;;4.95;;
59434;SDS011;45241;49.768;8.636;2023-06-19T04:17:18;6.22;;;5.13;;
59434;SDS011;45241;49.768;8.636;2023-06-19T04:19:43;7.60;;;5.03;;
59434;SDS011;45241;49.768;8.636;2023-06-19T04:22:08;5.18;;;4.68;;
59434;SDS011;45241;49.768;8.636;2023-06-19T04:24:34;7.32;;;5.20;;
59434;SDS011;45241;49.768;8.636;2023-06-19T04:27:00;5.53;;;4.95;;
59434;SDS011;45241;49.768;8.636;2023-06-19T04:29:25;5.28;;;4.35;;
59434;SDS011;45241;49.768;8.636;2023-06-19T04:31:51;4.78;;;4.32;;
59434;SDS011;45241;49.768;8.636;2023-06-19T04:34:16;5.93;;;4.30;;
59434;SDS011;45241;49.768;8.636;2023-06-19T04:36:46;5.35;;;4.40;;
59434;SDS011;45241;49.768;8.636;2023-06-19T04:39:12;5.78;;;4.90;;
59434;SDS011;45241;49.768;8.636;2023-06-19T04:41:37;6.55;;;4.20;;
59434;SDS011;45241;49.768;8.636;2023-06-19T04:44:04;4.65;;;4.00;;
59434;SDS011;45241;49.768;8.636;2023-06-19T04:46:30;5.50;;;4.10;;
59434;SDS011;45241;49.768;8.636;2023-06-19T04:48:55;6.15;;;4.00;;
59434;SDS011;45241;49.768;8.636;2023-06-19T04:51:20;4.80;;;4.10;;
59434;SDS011;45241;49.768;8.636;2023-06-19T04:53:46;5.90;;;3.90;;
59434;SDS011;45241;49.768;8.636;2023-06-19T04:56:12;4.38;;;3.53;;
59434;SDS011;45241;49.768;8.636;2023-06-19T04:58:37;4.97;;;3.97;;
59434;SDS011;45241;49.768;8.636;2023-06-19T05:01:10;4.18;;;3.58;;
59434;SDS011;45241;49.768;8.636;2023-06-19T05:03:36;4.03;;;3.63;;
59434;SDS011;45241;49.768;8.636;2023-06-19T05:06:01;3.67;;;3.28;;
59434;SDS011;45241;49.768;8.636;2023-06-19T05:08:27;4.57;;;3.80;;
59434;SDS011;45241;49.768;8.636;2023-06-19T05:10:52;4.35;;;3.70;;
59434;SDS011;45241;49.768;8.636;2023-06-19T05:13:18;5.15;;;3.20;;
59434;SDS011;45241;49.768;8.636;2023-06-19T05:15:44;3.80;;;3.38;;
59434;SDS011;45241;49.768;8.636;2023-06-19T05:18:09;4.18;;;3.35;;
59434;SDS011;45241;49.768;8.636;2023-06-19T05:20:34;3.65;;;3.03;;
59434;SDS011;45241;49.768;8.636;2023-06-19T05:23:00;4.43;;;3.20;;
59434;SDS011;45241;49.768;8.636;2023-06-19T05:25:25;4.72;;;3.20;;
59434;SDS011;45241;49.768;8.636;2023-06-19T05:27:50;3.53;;;3.03;;
59434;SDS011;45241;49.768;8.636;2023-06-19T05:30:16;4.57;;;3.10;;
59434;SDS011;45241;49.768;8.636;2023-06-19T05:32:41;3.35;;;2.90;;
59434;SDS011;45241;49.768;8.636;2023-06-19T05:35:06;3.35;;;2.88;;
59434;SDS011;45241;49.768;8.636;2023-06-19T05:37:32;2.90;;;2.60;;
59434;SDS011;45241;49.768;8.636;2023-06-19T05:39:58;4.70;;;3.20;;
59434;SDS011;45241;49.768;8.636;2023-06-19T05:42:24;3.97;;;2.97;;
59434;SDS011;45241;49.768;8.636;2023-06-19T05:44:49;4.88;;;2.75;;
59434;SDS011;45241;49.768;8.636;2023-06-19T05:47:15;5.03;;;2.83;;
59434;SDS011;45241;49.768;8.636;2023-06-19T05:49:42;3.65;;;2.83;;
59434;SDS011;45241;49.768;8.636;2023-06-19T05:52:07;6.35;;;2.75;;
59434;SDS011;45241;49.768;8.636;2023-06-19T05:54:32;7.20;;;2.80;;
59434;SDS011;45241;49.768;8.636;2023-06-19T05:56:58;4.28;;;3.10;;
59434;SDS011;45241;49.768;8.636;2023-06-19T05:59:23;6.88;;;3.00;;
59434;SDS011;45241;49.768;8.636;2023-06-19T06:01:49;5.57;;;2.80;;
59434;SDS011;45241;49.768;8.636;2023-06-19T06:04:15;6.95;;;3.05;;
59434;SDS011;45241;49.768;8.636;2023-06-19T06:06:41;3.22;;;2.90;;
59434;SDS011;45241;49.768;8.636;2023-06-19T06:09:06;8.55;;;3.25;;
59434;SDS011;45241;49.768;8.636;2023-06-19T06:14:01;3.85;;;3.08;;
59434;SDS011;45241;49.768;8.636;2023-06-19T06:16:26;3.47;;;3.08;;
59434;SDS011;45241;49.768;8.636;2023-06-19T06:18:52;3.60;;;2.88;;
59434;SDS011;45241;49.768;8.636;2023-06-19T06:21:17;3.60;;;2.78;;
59434;SDS011;45241;49.768;8.636;2023-06-19T06:23:42;6.00;;;2.92;;
59434;SDS011;45241;49.768;8.636;2023-06-19T06:26:09;5.55;;;3.08;;
59434;SDS011;45241;49.768;8.636;2023-06-19T06:28:35;5.50;;;3.45;;
59434;SDS011;45241;49.768;8.636;2023-06-19T06:31:00;3.85;;;3.20;;
59434;SDS011;45241;49.768;8.636;2023-06-19T06:33:26;4.65;;;3.28;;
59434;SDS011;45241;49.768;8.636;2023-06-19T06:35:51;3.78;;;2.95;;
59434;SDS011;45241;49.768;8.636;2023-06-19T06:38:18;4.93;;;2.97;;
59434;SDS011;45241;49.768;8.636;2023-06-19T06:40:44;4.80;;;3.40;;
59434;SDS011;45241;49.768;8.636;2023-06-19T06:43:09;3.83;;;3.42;;
59434;SDS011;45241;49.768;8.636;2023-06-19T06:45:34;4.85;;;3.30;;
59434;SDS011;45241;49.768;8.636;2023-06-19T06:48:02;3.67;;;3.20;;
59434;SDS011;45241;49.768;8.636;2023-06-19T06:50:28;6.50;;;3.70;;
59434;SDS011;45241;49.768;8.636;2023-06-19T06:52:53;3.92;;;3.53;;
59434;SDS011;45241;49.768;8.636;2023-06-19T06:55:19;3.95;;;3.00;;
59434;SDS011;45241;49.768;8.636;2023-06-19T06:57:44;5.82;;;4.00;;
59434;SDS011;45241;49.768;8.636;2023-06-19T07:00:09;6.00;;;3.53;;
59434;SDS011;45241;49.768;8.636;2023-06-19T07:02:37;5.40;;;3.75;;
59434;SDS011;45241;49.768;8.636;2023-06-19T07:05:04;6.40;;;3.70;;
59434;SDS011;45241;49.768;8.636;2023-06-19T07:07:29;5.10;;;3.95;;
59434;SDS011;45241;49.768;8.636;2023-06-19T07:09:54;9.63;;;4.57;;
59434;SDS011;45241;49.768;8.636;2023-06-19T07:12:20;7.55;;;3.88;;
59434;SDS011;45241;49.768;8.636;2023-06-19T07:14:45;12.98;;;3.92;;
59434;SDS011;45241;49.768;8.636;2023-06-19T07:17:10;7.13;;;3.60;;
59434;SDS011;45241;49.768;8.636;2023-06-19T07:19:36;4.97;;;3.78;;
59434;SDS011;45241;49.768;8.636;2023-06-19T07:22:01;6.80;;;3.90;;
59434;SDS011;45241;49.768;8.636;2023-06-19T07:24:26;10.57;;;4.30;;
59434;SDS011;45241;49.768;8.636;2023-06-19T07:26:52;6.47;;;4.05;;
59434;SDS011;45241;49.768;8.636;2023-06-19T07:29:17;5.75;;;4.30;;
59434;SDS011;45241;49.768;8.636;2023-06-19T07:31:42;7.45;;;4.00;;
59434;SDS011;45241;49.768;8.636;2023-06-19T07:34:08;4.28;;;3.80;;
59434;SDS011;45241;49.768;8.636;2023-06-19T07:36:33;6.45;;;4.03;;
59434;SDS011;45241;49.768;8.636;2023-06-19T07:38:59;6.43;;;3.90;;
59434;SDS011;45241;49.768;8.636;2023-06-19T07:41:24;4.45;;;3.70;;
59434;SDS011;45241;49.768;8.636;2023-06-19T07:43:49;5.82;;;4.22;;
59434;SDS011;45241;49.768;8.636;2023-06-19T07:46:15;4.50;;;3.83;;
59434;SDS011;45241;49.768;8.636;2023-06-19T07:48:40;5.35;;;3.92;;
59434;SDS011;45241;49.768;8.636;2023-06-19T07:51:05;6.75;;;4.07;;
59434;SDS011;45241;49.768;8.636;2023-06-19T07:53:31;7.40;;;3.90;;
59434;SDS011;45241;49.768;8.636;2023-06-19T07:55:56;4.82;;;4.00;;
59434;SDS011;45241;49.768;8.636;2023-06-19T07:58:21;5.40;;;3.90;;
59434;SDS011;45241;49.768;8.636;2023-06-19T08:00:47;5.47;;;3.80;;
59434;SDS011;45241;49.768;8.636;2023-06-19T08:03:12;7.22;;;3.97;;
59434;SDS011;45241;49.768;8.636;2023-06-19T08:05:38;5.75;;;4.05;;
59434;SDS011;45241;49.768;8.636;2023-06-19T08:08:03;7.65;;;4.10;;
59434;SDS011;45241;49.768;8.636;2023-06-19T08:10:29;7.13;;;4.35;;
59434;SDS011;45241;49.768;8.636;2023-06-19T08:12:54;4.35;;;3.95;;
59434;SDS011;45241;49.768;8.636;2023-06-19T08:15:19;4.72;;;4.22;;
59434;SDS011;45241;49.768;8.636;2023-06-19T08:17:45;6.60;;;4.20;;
59434;SDS011;45241;49.768;8.636;2023-06-19T08:20:10;6.28;;;4.18;;
59434;SDS011;45241;49.768;8.636;2023-06-19T08:22:36;7.22;;;4.00;;
59434;SDS011;45241;49.768;8.636;2023-06-19T08:25:01;6.93;;;3.60;;
59434;SDS011;45241;49.768;8.636;2023-06-19T08:27:27;6.38;;;3.97;;
59434;SDS011;45241;49.768;8.636;2023-06-19T08:29:53;4.40;;;3.70;;
59434;SDS011;45241;49.768;8.636;2023-06-19T08:32:19;5.72;;;3.78;;
59434;SDS011;45241;49.768;8.636;2023-06-19T08:34:44;4.28;;;3.88;;
59434;SDS011;45241;49.768;8.636;2023-06-19T08:37:09;4.72;;;4.32;;
59434;SDS011;45241;49.768;8.636;2023-06-19T08:39:35;5.82;;;4.03;;
59434;SDS011;45241;49.768;8.636;2023-06-19T08:42:07;7.38;;;3.97;;
59434;SDS011;45241;49.768;8.636;2023-06-19T08:44:33;4.32;;;3.92;;
59434;SDS011;45241;49.768;8.636;2023-06-19T08:46:59;7.47;;;4.75;;
59434;SDS011;45241;49.768;8.636;2023-06-19T08:49:28;4.30;;;3.90;;
59434;SDS011;45241;49.768;8.636;2023-06-19T08:51:55;4.75;;;3.97;;
59434;SDS011;45241;49.768;8.636;2023-06-19T08:54:20;6.57;;;4.20;;
59434;SDS011;45241;49.768;8.636;2023-06-19T08:56:46;4.60;;;4.18;;
59434;SDS011;45241;49.768;8.636;2023-06-19T08:59:16;7.15;;;4.68;;
59434;SDS011;45241;49.768;8.636;2023-06-19T09:01:52;6.20;;;4.07;;
59434;SDS011;45241;49.768;8.636;2023-06-19T09:04:23;6.10;;;4.20;;
59434;SDS011;45241;49.768;8.636;2023-06-19T09:06:56;6.00;;;4.35;;
59434;SDS011;45241;49.768;8.636;2023-06-19T09:09:25;5.72;;;4.18;;
59434;SDS011;45241;49.768;8.636;2023-06-19T09:12:01;5.93;;;3.95;;
59434;SDS011;45241;49.768;8.636;2023-06-19T09:14:34;5.03;;;4.15;;
59434;SDS011;45241;49.768;8.636;2023-06-19T09:17:07;4.93;;;4.43;;
59434;SDS011;45241;49.768;8.636;2023-06-19T09:19:37;5.40;;;4.38;;
59434;SDS011;45241;49.768;8.636;2023-06-19T09:22:06;5.38;;;4.55;;
59434;SDS011;45241;49.768;8.636;2023-06-19T09:24:35;14.30;;;4.13;;
59434;SDS011;45241;49.768;8.636;2023-06-19T09:27:12;6.45;;;3.97;;
59434;SDS011;45241;49.768;8.636;2023-06-19T09:29:47;4.60;;;4.13;;
59434;SDS011;45241;49.768;8.636;2023-06-19T09:32:23;5.38;;;3.88;;
59434;SDS011;45241;49.768;8.636;2023-06-19T09:34:54;5.13;;;4.28;;
59434;SDS011;45241;49.768;8.636;2023-06-19T09:37:30;4.50;;;4.10;;
59434;SDS011;45241;49.768;8.636;2023-06-19T09:39:59;4.88;;;4.30;;
59434;SDS011;45241;49.768;8.636;2023-06-19T09:42:33;5.07;;;4.53;;
59434;SDS011;45241;49.768;8.636;2023-06-19T09:45:03;5.00;;;4.57;;
59434;SDS011;45241;49.768;8.636;2023-06-19T09:47:35;6.28;;;4.43;;
59434;SDS011;45241;49.768;8.636;2023-06-19T09:50:07;4.10;;;3.70;;
59434;SDS011;45241;49.768;8.636;2023-06-19T09:52:33;5.72;;;4.07;;
59434;SDS011;45241;49.768;8.636;2023-06-19T09:55:01;7.00;;;4.30;;
59434;SDS011;45241;49.768;8.636;2023-06-19T09:57:29;4.85;;;4.30;;
59434;SDS011;45241;49.768;8.636;2023-06-19T09:59:55;4.13;;;3.72;;
59434;SDS011;45241;49.768;8.636;2023-06-19T10:02:22;5.57;;;4.10;;
59434;SDS011;45241;49.768;8.636;2023-06-19T10:04:50;4.30;;;3.90;;
59434;SDS011;45241;49.768;8.636;2023-06-19T10:09:57;3.70;;;3.40;;
59434;SDS011;45241;49.768;8.636;2023-06-19T10:15:16;6.63;;;5.00;;
59434;SDS011;45241;49.768;8.636;2023-06-19T10:20:34;6.18;;;5.40;;
59434;SDS011;45241;49.768;8.636;2023-06-19T10:25:44;6.65;;;5.15;;
59434;SDS011;45241;49.768;8.636;2023-06-19T10:30:51;6.03;;;4.82;;
59434;SDS011;45241;49.768;8.636;2023-06-19T10:33:18;5.28;;;4.47;;
59434;SDS011;45241;49.768;8.636;2023-06-19T10:35:43;14.02;;;4.93;;
59434;SDS011;45241;49.768;8.636;2023-06-19T10:38:08;5.38;;;4.88;;
59434;SDS011;45241;49.768;8.636;2023-06-19T10:40:37;6.03;;;4.35;;
59434;SDS011;45241;49.768;8.636;2023-06-19T10:43:02;4.63;;;4.18;;
59434;SDS011;45241;49.768;8.636;2023-06-19T10:45:29;4.30;;;3.90;;
59434;SDS011;45241;49.768;8.636;2023-06-19T10:47:54;5.97;;;3.60;;
59434;SDS011;45241;49.768;8.636;2023-06-19T10:50:20;4.18;;;3.70;;
59434;SDS011;45241;49.768;8.636;2023-06-19T10:52:47;5.40;;;3.78;;
59434;SDS011;45241;49.768;8.636;2023-06-19T10:55:14;3.90;;;3.40;;
59434;SDS011;45241;49.768;8.636;2023-06-19T10:57:40;3.60;;;2.88;;
59434;SDS011;45241;49.768;8.636;2023-06-19T11:00:09;4.70;;;3.20;;
59434;SDS011;45241;49.768;8.636;2023-06-19T11:02:37;4.97;;;3.78;;
59434;SDS011;45241;49.768;8.636;2023-06-19T11:05:04;4.15;;;3.30;;
59434;SDS011;45241;49.768;8.636;2023-06-19T11:07:31;3.88;;;3.58;;
59434;SDS011;45241;49.768;8.636;2023-06-19T11:09:57;4.00;;;3.60;;
59434;SDS011;45241;49.768;8.636;2023-06-19T11:12:23;4.57;;;3.83;;
59434;SDS011;45241;49.768;8.636;2023-06-19T11:14:48;5.80;;;3.90;;
59434;SDS011;45241;49.768;8.636;2023-06-19T11:17:14;4.35;;;3.65;;
59434;SDS011;45241;49.768;8.636;2023-06-19T11:19:41;5.10;;;3.40;;
59434;SDS011;45241;49.768;8.636;2023-06-19T11:22:08;4.20;;;3.28;;
59434;SDS011;45241;49.768;8.636;2023-06-19T11:24:34;4.03;;;3.55;;
59434;SDS011;45241;49.768;8.636;2023-06-19T11:26:59;5.63;;;3.25;;
59434;SDS011;45241;49.768;8.636;2023-06-19T11:32:12;3.40;;;3.10;;
59434;SDS011;45241;49.768;8.636;2023-06-19T11:34:39;4.18;;;3.40;;
59434;SDS011;45241;49.768;8.636;2023-06-19T11:37:14;3.65;;;3.35;;
59434;SDS011;45241;49.768;8.636;2023-06-19T11:39:43;4.22;;;3.25;;
59434;SDS011;45241;49.768;8.636;2023-06-19T11:42:09;5.25;;;3.60;;
59434;SDS011;45241;49.768;8.636;2023-06-19T11:44:34;4.60;;;3.53;;
59434;SDS011;45241;49.768;8.636;2023-06-19T11:47:00;4.13;;;3.33;;
59434;SDS011;45241;49.768;8.636;2023-06-19T11:49:25;4.47;;;3.47;;
59434;SDS011;45241;49.768;8.636;2023-06-19T11:51:50;4.38;;;3.78;;
59434;SDS011;45241;49.768;8.636;2023-06-19T11:54:16;5.13;;;3.65;;
59434;SDS011;45241;49.768;8.636;2023-06-19T11:56:42;4.32;;;3.58;;
59434;SDS011;45241;49.768;8.636;2023-06-19T11:59:08;4.57;;;3.60;;
59434;SDS011;45241;49.768;8.636;2023-06-19T12:01:34;3.65;;;2.90;;
59434;SDS011;45241;49.768;8.636;2023-06-19T12:04:01;4.90;;;3.03;;
59434;SDS011;45241;49.768;8.636;2023-06-19T12:06:27;5.60;;;3.47;;
59434;SDS011;45241;49.768;8.636;2023-06-19T12:08:53;3.25;;;2.95;;
59434;SDS011;45241;49.768;8.636;2023-06-19T12:11:18;6.90;;;3.20;;
59434;SDS011;45241;49.768;8.636;2023-06-19T12:13:44;4.97;;;3.35;;
59434;SDS011;45241;49.768;8.636;2023-06-19T12:16:10;4.65;;;3.38;;
59434;SDS011;45241;49.768;8.636;2023-06-19T12:18:36;3.88;;;3.22;;
59434;SDS011;45241;49.768;8.636;2023-06-19T12:21:01;4.22;;;3.40;;
59434;SDS011;45241;49.768;8.636;2023-06-19T12:23:27;3.50;;;3.20;;
59434;SDS011;45241;49.768;8.636;2023-06-19T12:25:52;3.85;;;3.10;;
59434;SDS011;45241;49.768;8.636;2023-06-19T12:28:17;5.07;;;3.30;;
59434;SDS011;45241;49.768;8.636;2023-06-19T12:30:47;5.75;;;3.45;;
59434;SDS011;45241;49.768;8.636;2023-06-19T12:33:20;4.15;;;3.38;;
59434;SDS011;45241;49.768;8.636;2023-06-19T12:35:48;4.35;;;3.38;;
59434;SDS011;45241;49.768;8.636;2023-06-19T12:38:14;6.07;;;3.35;;
59434;SDS011;45241;49.768;8.636;2023-06-19T12:40:39;7.00;;;3.30;;
59434;SDS011;45241;49.768;8.636;2023-06-19T12:43:05;6.05;;;3.40;;
59434;SDS011;45241;49.768;8.636;2023-06-19T12:45:31;4.15;;;3.55;;
59434;SDS011;45241;49.768;8.636;2023-06-19T12:47:56;3.97;;;3.53;;
59434;SDS011;45241;49.768;8.636;2023-06-19T12:50:22;4.18;;;3.03;;
59434;SDS011;45241;49.768;8.636;2023-06-19T12:52:47;5.50;;;3.20;;
59434;SDS011;45241;49.768;8.636;2023-06-19T12:55:13;4.72;;;3.10;;
59434;SDS011;45241;49.768;8.636;2023-06-19T12:57:38;5.40;;;3.22;;
59434;SDS011;45241;49.768;8.636;2023-06-19T13:00:05;3.95;;;3.47;;
59434;SDS011;45241;49.768;8.636;2023-06-19T13:02:33;4.38;;;2.85;;
59434;SDS011;45241;49.768;8.636;2023-06-19T13:04:58;6.00;;;3.03;;
59434;SDS011;45241;49.768;8.636;2023-06-19T13:07:24;6.07;;;3.40;;
59434;SDS011;45241;49.768;8.636;2023-06-19T13:09:49;4.05;;;3.08;;
59434;SDS011;45241;49.768;8.636;2023-06-19T13:12:14;4.40;;;3.22;;
59434;SDS011;45241;49.768;8.636;2023-06-19T13:14:40;4.53;;;3.00;;
59434;SDS011;45241;49.768;8.636;2023-06-19T13:17:05;5.57;;;3.08;;
59434;SDS011;45241;49.768;8.636;2023-06-19T13:19:31;3.30;;;3.00;;
59434;SDS011;45241;49.768;8.636;2023-06-19T13:21:56;3.35;;;3.05;;
59434;SDS011;45241;49.768;8.636;2023-06-19T13:24:21;3.45;;;3.15;;
59434;SDS011;45241;49.768;8.636;2023-06-19T13:26:47;3.47;;;2.90;;
59434;SDS011;45241;49.768;8.636;2023-06-19T13:29:12;3.22;;;2.90;;
59434;SDS011;45241;49.768;8.636;2023-06-19T13:31:38;4.85;;;2.97;;
59434;SDS011;45241;49.768;8.636;2023-06-19T13:34:03;5.28;;;2.92;;
59434;SDS011;45241;49.768;8.636;2023-06-19T13:36:29;4.75;;;2.90;;
59434;SDS011;45241;49.768;8.636;2023-06-19T13:38:54;6.20;;;3.05;;
59434;SDS011;45241;49.768;8.636;2023-06-19T13:41:20;3.00;;;2.70;;
59434;SDS011;45241;49.768;8.636;2023-06-19T13:43:49;3.15;;;2.85;;
59434;SDS011;45241;49.768;8.636;2023-06-19T13:46:15;4.72;;;2.90;;
59434;SDS011;45241;49.768;8.636;2023-06-19T13:48:40;3.65;;;2.70;;
59434;SDS011;45241;49.768;8.636;2023-06-19T13:51:06;4.18;;;2.50;;
59434;SDS011;45241;49.768;8.636;2023-06-19T13:53:31;3.05;;;2.40;;
59434;SDS011;45241;49.768;8.636;2023-06-19T13:55:57;3.97;;;2.60;;
59434;SDS011;45241;49.768;8.636;2023-06-19T13:58:22;4.40;;;2.55;;
59434;SDS011;45241;49.768;8.636;2023-06-19T14:00:47;2.88;;;2.30;;
59434;SDS011;45241;49.768;8.636;2023-06-19T14:03:13;2.47;;;2.28;;
59434;SDS011;45241;49.768;8.636;2023-06-19T14:05:39;4.10;;;2.60;;
59434;SDS011;45241;49.768;8.636;2023-06-19T14:08:04;2.70;;;2.50;;
59434;SDS011;45241;49.768;8.636;2023-06-19T14:10:30;2.58;;;2.38;;
59434;SDS011;45241;49.768;8.636;2023-06-19T14:12:55;2.80;;;2.60;;
59434;SDS011;45241;49.768;8.636;2023-06-19T14:15:20;2.70;;;2.50;;
59434;SDS011;45241;49.768;8.636;2023-06-19T14:17:46;3.97;;;2.42;;
59434;SDS011;45241;49.768;8.636;2023-06-19T14:20:11;3.53;;;2.70;;
59434;SDS011;45241;49.768;8.636;2023-06-19T14:22:37;5.25;;;2.72;;
59434;SDS011;45241;49.768;8.636;2023-06-19T14:25:02;3.30;;;2.40;;
59434;SDS011;45241;49.768;8.636;2023-06-19T14:27:28;3.42;;;2.55;;
59434;SDS011;45241;49.768;8.636;2023-06-19T14:29:56;5.28;;;2.47;;
59434;SDS011;45241;49.768;8.636;2023-06-19T14:32:22;3.97;;;2.58;;
59434;SDS011;45241;49.768;8.636;2023-06-19T14:34:50;5.47;;;2.80;;
59434;SDS011;45241;49.768;8.636;2023-06-19T14:37:16;2.55;;;2.35;;
59434;SDS011;45241;49.768;8.636;2023-06-19T14:39:41;3.03;;;2.45;;
59434;SDS011;45241;49.768;8.636;2023-06-19T14:42:07;4.70;;;2.80;;
59434;SDS011;45241;49.768;8.636;2023-06-19T14:44:33;5.95;;;2.72;;
59434;SDS011;45241;49.768;8.636;2023-06-19T14:46:58;2.83;;;2.30;;
59434;SDS011;45241;49.768;8.636;2023-06-19T14:49:23;3.25;;;2.85;;
59434;SDS011;45241;49.768;8.636;2023-06-19T14:51:49;2.72;;;2.25;;
59434;SDS011;45241;49.768;8.636;2023-06-19T14:54:14;3.83;;;2.60;;
59434;SDS011;45241;49.768;8.636;2023-06-19T14:56:42;2.65;;;2.30;;
59434;SDS011;45241;49.768;8.636;2023-06-19T14:59:09;3.20;;;2.55;;
59434;SDS011;45241;49.768;8.636;2023-06-19T15:01:34;3.33;;;2.42;;